sensor_id;sensor_type;location;lat;lon;timestamp;temperature;humidity
5924;DHT22;2987;50.884;14.818;2024-02-21T00:01:22;7.20;99.90
5924;DHT22;2987;50.884;14.818;2024-02-21T00:03:48;6.80;99.90
5924;DHT22;2987;50.884;14.818;2024-02-21T00:06:15;7.20;99.90
5924;DHT22;2987;50.884;14.818;2024-02-21T00:08:41;7.00;99.90
5924;DHT22;2987;50.884;14.818;2024-02-21T00:11:07;6.90;99.90
5924;DHT22;2987;50.884;14.818;2024-02-21T00:13:33;6.80;99.90
5924;DHT22;2987;50.884;14.818;2024-02-21T00:16:00;7.00;99.90
5924;DHT22;2987;50.884;14.818;2024-02-21T00:18:27;7.20;99.90
5924;DHT22;2987;50.884;14.818;2024-02-21T00:20:53;6.90;99.90
5924;DHT22;2987;50.884;14.818;2024-02-21T00:23:19;6.90;99.90
5924;DHT22;2987;50.884;14.818;2024-02-21T00:25:45;6.80;99.90
5924;DHT22;2987;50.884;14.818;2024-02-21T00:28:11;7.10;99.90
5924;DHT22;2987;50.884;14.818;2024-02-21T00:30:37;7.00;99.90
5924;DHT22;2987;50.884;14.818;2024-02-21T00:33:03;7.00;99.90
5924;DHT22;2987;50.884;14.818;2024-02-21T00:35:29;7.00;99.90
5924;DHT22;2987;50.884;14.818;2024-02-21T00:37:56;7.00;99.90
5924;DHT22;2987;50.884;14.818;2024-02-21T00:40:23;7.00;99.90
5924;DHT22;2987;50.884;14.818;2024-02-21T00:42:49;6.90;99.90
5924;DHT22;2987;50.884;14.818;2024-02-21T00:45:15;7.10;99.90
5924;DHT22;2987;50.884;14.818;2024-02-21T00:47:40;6.80;99.90
5924;DHT22;2987;50.884;14.818;2024-02-21T00:50:07;7.20;99.90
5924;DHT22;2987;50.884;14.818;2024-02-21T00:52:33;7.00;99.90
5924;DHT22;2987;50.884;14.818;2024-02-21T00:54:59;7.00;99.90
5924;DHT22;2987;50.884;14.818;2024-02-21T00:57:25;7.00;99.90
5924;DHT22;2987;50.884;14.818;2024-02-21T00:59:51;7.00;99.90
5924;DHT22;2987;50.884;14.818;2024-02-21T01:02:17;7.00;99.90
5924;DHT22;2987;50.884;14.818;2024-02-21T01:04:44;7.00;99.90
5924;DHT22;2987;50.884;14.818;2024-02-21T01:07:10;6.90;99.90
5924;DHT22;2987;50.884;14.818;2024-02-21T01:09:35;6.80;99.90
5924;DHT22;2987;50.884;14.818;2024-02-21T01:12:01;7.00;99.90
5924;DHT22;2987;50.884;14.818;2024-02-21T01:14:27;6.80;99.90
5924;DHT22;2987;50.884;14.818;2024-02-21T01:16:54;6.90;99.90
5924;DHT22;2987;50.884;14.818;2024-02-21T01:19:19;6.80;99.90
5924;DHT22;2987;50.884;14.818;2024-02-21T01:21:46;7.00;99.90
5924;DHT22;2987;50.884;14.818;2024-02-21T01:24:12;7.00;99.90
5924;DHT22;2987;50.884;14.818;2024-02-21T01:26:38;7.00;99.90
5924;DHT22;2987;50.884;14.818;2024-02-21T01:29:04;6.90;99.90
5924;DHT22;2987;50.884;14.818;2024-02-21T01:31:30;7.00;99.90
5924;DHT22;2987;50.884;14.818;2024-02-21T01:33:56;6.90;99.90
5924;DHT22;2987;50.884;14.818;2024-02-21T01:36:23;6.70;99.90
5924;DHT22;2987;50.884;14.818;2024-02-21T01:38:49;6.60;99.90
5924;DHT22;2987;50.884;14.818;2024-02-21T01:41:15;6.90;99.90
5924;DHT22;2987;50.884;14.818;2024-02-21T01:43:42;6.70;99.90
5924;DHT22;2987;50.884;14.818;2024-02-21T01:46:08;6.70;99.90
5924;DHT22;2987;50.884;14.818;2024-02-21T01:48:34;6.60;99.90
5924;DHT22;2987;50.884;14.818;2024-02-21T01:51:02;6.80;99.90
5924;DHT22;2987;50.884;14.818;2024-02-21T01:53:38;6.80;99.90
5924;DHT22;2987;50.884;14.818;2024-02-21T01:56:07;6.90;99.90
5924;DHT22;2987;50.884;14.818;2024-02-21T01:58:36;6.50;99.90
5924;DHT22;2987;50.884;14.818;2024-02-21T02:01:03;7.00;99.90
5924;DHT22;2987;50.884;14.818;2024-02-21T02:03:30;6.90;99.90
5924;DHT22;2987;50.884;14.818;2024-02-21T02:05:56;6.80;99.90
5924;DHT22;2987;50.884;14.818;2024-02-21T02:08:23;6.90;99.90
5924;DHT22;2987;50.884;14.818;2024-02-21T02:10:49;6.80;99.90
5924;DHT22;2987;50.884;14.818;2024-02-21T02:13:15;6.90;99.90
5924;DHT22;2987;50.884;14.818;2024-02-21T02:18:09;6.90;99.90
5924;DHT22;2987;50.884;14.818;2024-02-21T02:20:36;6.90;99.90
5924;DHT22;2987;50.884;14.818;2024-02-21T02:23:30;6.90;99.90
5924;DHT22;2987;50.884;14.818;2024-02-21T02:26:00;6.90;99.90
5924;DHT22;2987;50.884;14.818;2024-02-21T02:28:29;6.90;99.90
5924;DHT22;2987;50.884;14.818;2024-02-21T02:30:55;7.00;99.90
5924;DHT22;2987;50.884;14.818;2024-02-21T02:33:20;7.00;99.90
5924;DHT22;2987;50.884;14.818;2024-02-21T02:35:47;6.90;99.90
5924;DHT22;2987;50.884;14.818;2024-02-21T02:38:13;6.80;99.90
5924;DHT22;2987;50.884;14.818;2024-02-21T02:40:39;6.90;99.90
5924;DHT22;2987;50.884;14.818;2024-02-21T02:43:06;6.80;99.90
5924;DHT22;2987;50.884;14.818;2024-02-21T02:45:32;6.90;99.90
5924;DHT22;2987;50.884;14.818;2024-02-21T02:47:59;6.90;99.90
5924;DHT22;2987;50.884;14.818;2024-02-21T02:50:26;7.00;99.90
5924;DHT22;2987;50.884;14.818;2024-02-21T02:52:55;7.00;99.90
5924;DHT22;2987;50.884;14.818;2024-02-21T02:55:21;7.00;99.90
5924;DHT22;2987;50.884;14.818;2024-02-21T02:57:48;6.90;99.90
5924;DHT22;2987;50.884;14.818;2024-02-21T03:00:14;6.90;99.90
5924;DHT22;2987;50.884;14.818;2024-02-21T03:02:42;6.70;99.90
5924;DHT22;2987;50.884;14.818;2024-02-21T03:05:18;6.90;99.90
5924;DHT22;2987;50.884;14.818;2024-02-21T03:07:44;6.70;99.90
5924;DHT22;2987;50.884;14.818;2024-02-21T03:10:11;6.80;99.90
5924;DHT22;2987;50.884;14.818;2024-02-21T03:12:37;6.90;99.90
5924;DHT22;2987;50.884;14.818;2024-02-21T03:15:04;6.70;99.90
5924;DHT22;2987;50.884;14.818;2024-02-21T03:17:31;7.10;99.90
5924;DHT22;2987;50.884;14.818;2024-02-21T03:19:58;7.00;99.90
5924;DHT22;2987;50.884;14.818;2024-02-21T03:22:25;6.90;99.90
5924;DHT22;2987;50.884;14.818;2024-02-21T03:24:51;6.80;99.90
5924;DHT22;2987;50.884;14.818;2024-02-21T03:27:17;6.80;99.90
5924;DHT22;2987;50.884;14.818;2024-02-21T03:29:43;6.90;99.90
5924;DHT22;2987;50.884;14.818;2024-02-21T03:32:09;7.00;99.90
5924;DHT22;2987;50.884;14.818;2024-02-21T03:34:35;7.00;99.90
5924;DHT22;2987;50.884;14.818;2024-02-21T03:37:01;7.00;99.90
5924;DHT22;2987;50.884;14.818;2024-02-21T03:39:30;7.00;99.90
5924;DHT22;2987;50.884;14.818;2024-02-21T03:41:56;7.00;99.90
5924;DHT22;2987;50.884;14.818;2024-02-21T03:44:23;7.00;99.90
5924;DHT22;2987;50.884;14.818;2024-02-21T03:46:49;6.90;99.90
5924;DHT22;2987;50.884;14.818;2024-02-21T03:49:15;6.90;99.90
5924;DHT22;2987;50.884;14.818;2024-02-21T03:51:41;6.70;99.90
5924;DHT22;2987;50.884;14.818;2024-02-21T03:54:07;7.00;99.90
5924;DHT22;2987;50.884;14.818;2024-02-21T03:56:37;7.00;99.90
5924;DHT22;2987;50.884;14.818;2024-02-21T03:59:04;7.00;99.90
5924;DHT22;2987;50.884;14.818;2024-02-21T04:01:30;7.00;99.90
5924;DHT22;2987;50.884;14.818;2024-02-21T04:03:56;6.70;99.90
5924;DHT22;2987;50.884;14.818;2024-02-21T04:06:22;6.90;99.90
5924;DHT22;2987;50.884;14.818;2024-02-21T04:08:48;7.00;99.90
5924;DHT22;2987;50.884;14.818;2024-02-21T04:11:13;6.90;99.90
5924;DHT22;2987;50.884;14.818;2024-02-21T04:13:39;6.70;99.90
5924;DHT22;2987;50.884;14.818;2024-02-21T04:16:05;6.80;99.90
5924;DHT22;2987;50.884;14.818;2024-02-21T04:18:31;6.90;99.90
5924;DHT22;2987;50.884;14.818;2024-02-21T04:20:58;6.70;99.90
5924;DHT22;2987;50.884;14.818;2024-02-21T04:23:24;6.60;99.90
5924;DHT22;2987;50.884;14.818;2024-02-21T04:25:50;6.90;99.90
5924;DHT22;2987;50.884;14.818;2024-02-21T04:28:16;6.70;99.90
5924;DHT22;2987;50.884;14.818;2024-02-21T04:30:41;6.90;99.90
5924;DHT22;2987;50.884;14.818;2024-02-21T04:33:07;6.90;99.90
5924;DHT22;2987;50.884;14.818;2024-02-21T04:35:35;6.80;99.90
5924;DHT22;2987;50.884;14.818;2024-02-21T04:38:01;7.00;99.90
5924;DHT22;2987;50.884;14.818;2024-02-21T04:40:27;6.90;99.90
5924;DHT22;2987;50.884;14.818;2024-02-21T04:42:53;6.60;99.90
5924;DHT22;2987;50.884;14.818;2024-02-21T04:45:19;6.70;99.90
5924;DHT22;2987;50.884;14.818;2024-02-21T04:47:45;6.90;99.90
5924;DHT22;2987;50.884;14.818;2024-02-21T04:50:11;6.80;99.90
5924;DHT22;2987;50.884;14.818;2024-02-21T04:52:36;6.90;99.90
5924;DHT22;2987;50.884;14.818;2024-02-21T04:55:03;6.80;99.90
5924;DHT22;2987;50.884;14.818;2024-02-21T04:57:29;6.90;99.90
5924;DHT22;2987;50.884;14.818;2024-02-21T04:59:54;6.80;99.90
5924;DHT22;2987;50.884;14.818;2024-02-21T05:02:20;6.90;99.90
5924;DHT22;2987;50.884;14.818;2024-02-21T05:04:48;7.00;99.90
5924;DHT22;2987;50.884;14.818;2024-02-21T05:07:14;6.90;99.90
5924;DHT22;2987;50.884;14.818;2024-02-21T05:09:40;6.90;99.90
5924;DHT22;2987;50.884;14.818;2024-02-21T05:12:07;6.50;99.90
5924;DHT22;2987;50.884;14.818;2024-02-21T05:14:33;6.80;99.90
5924;DHT22;2987;50.884;14.818;2024-02-21T05:17:00;6.70;99.90
5924;DHT22;2987;50.884;14.818;2024-02-21T05:19:26;6.80;99.90
5924;DHT22;2987;50.884;14.818;2024-02-21T05:21:51;6.60;99.90
5924;DHT22;2987;50.884;14.818;2024-02-21T05:24:17;6.90;99.90
5924;DHT22;2987;50.884;14.818;2024-02-21T05:26:43;6.80;99.90
5924;DHT22;2987;50.884;14.818;2024-02-21T05:29:09;6.90;99.90
5924;DHT22;2987;50.884;14.818;2024-02-21T05:34:21;7.00;99.90
5924;DHT22;2987;50.884;14.818;2024-02-21T05:36:47;6.90;99.90
5924;DHT22;2987;50.884;14.818;2024-02-21T05:39:15;6.50;99.90
5924;DHT22;2987;50.884;14.818;2024-02-21T05:41:45;6.90;99.90
5924;DHT22;2987;50.884;14.818;2024-02-21T05:44:11;6.90;99.90
5924;DHT22;2987;50.884;14.818;2024-02-21T05:46:37;6.80;99.90
5924;DHT22;2987;50.884;14.818;2024-02-21T05:49:03;7.00;99.90
5924;DHT22;2987;50.884;14.818;2024-02-21T05:51:33;6.90;99.90
5924;DHT22;2987;50.884;14.818;2024-02-21T05:54:00;6.80;99.90
5924;DHT22;2987;50.884;14.818;2024-02-21T05:56:26;6.90;99.90
5924;DHT22;2987;50.884;14.818;2024-02-21T05:58:52;6.80;99.90
5924;DHT22;2987;50.884;14.818;2024-02-21T06:01:18;6.90;99.90
5924;DHT22;2987;50.884;14.818;2024-02-21T06:03:44;6.70;99.90
5924;DHT22;2987;50.884;14.818;2024-02-21T06:06:11;6.60;99.90
5924;DHT22;2987;50.884;14.818;2024-02-21T06:08:39;6.70;99.90
5924;DHT22;2987;50.884;14.818;2024-02-21T06:11:05;6.50;99.90
5924;DHT22;2987;50.884;14.818;2024-02-21T06:13:30;6.90;99.90
5924;DHT22;2987;50.884;14.818;2024-02-21T06:15:56;6.40;99.90
5924;DHT22;2987;50.884;14.818;2024-02-21T06:18:22;6.50;99.90
5924;DHT22;2987;50.884;14.818;2024-02-21T06:20:48;6.70;99.90
5924;DHT22;2987;50.884;14.818;2024-02-21T06:23:16;6.70;99.90
5924;DHT22;2987;50.884;14.818;2024-02-21T06:25:45;6.70;99.90
5924;DHT22;2987;50.884;14.818;2024-02-21T06:28:13;6.60;99.90
5924;DHT22;2987;50.884;14.818;2024-02-21T06:30:40;6.70;99.90
5924;DHT22;2987;50.884;14.818;2024-02-21T06:33:06;6.70;99.90
5924;DHT22;2987;50.884;14.818;2024-02-21T06:35:34;6.60;99.90
5924;DHT22;2987;50.884;14.818;2024-02-21T06:38:00;6.90;99.90
5924;DHT22;2987;50.884;14.818;2024-02-21T06:40:26;6.80;99.90
5924;DHT22;2987;50.884;14.818;2024-02-21T06:42:52;6.90;99.90
5924;DHT22;2987;50.884;14.818;2024-02-21T06:45:18;6.70;99.90
5924;DHT22;2987;50.884;14.818;2024-02-21T06:47:44;6.70;99.90
5924;DHT22;2987;50.884;14.818;2024-02-21T06:50:11;6.70;99.90
5924;DHT22;2987;50.884;14.818;2024-02-21T06:52:37;6.90;99.90
5924;DHT22;2987;50.884;14.818;2024-02-21T06:55:03;7.20;99.90
5924;DHT22;2987;50.884;14.818;2024-02-21T06:57:30;6.90;99.90
5924;DHT22;2987;50.884;14.818;2024-02-21T06:59:56;7.30;99.90
5924;DHT22;2987;50.884;14.818;2024-02-21T07:02:22;7.00;99.90
5924;DHT22;2987;50.884;14.818;2024-02-21T07:04:48;7.30;99.90
5924;DHT22;2987;50.884;14.818;2024-02-21T07:07:15;7.00;99.90
5924;DHT22;2987;50.884;14.818;2024-02-21T07:09:41;7.10;99.90
5924;DHT22;2987;50.884;14.818;2024-02-21T07:12:08;7.30;99.90
5924;DHT22;2987;50.884;14.818;2024-02-21T07:14:35;7.40;99.90
5924;DHT22;2987;50.884;14.818;2024-02-21T07:17:01;7.10;99.90
5924;DHT22;2987;50.884;14.818;2024-02-21T07:19:27;7.00;99.90
5924;DHT22;2987;50.884;14.818;2024-02-21T07:21:53;7.30;99.90
5924;DHT22;2987;50.884;14.818;2024-02-21T07:24:19;7.20;99.90
5924;DHT22;2987;50.884;14.818;2024-02-21T07:26:45;7.20;99.90
5924;DHT22;2987;50.884;14.818;2024-02-21T07:29:11;7.10;99.90
5924;DHT22;2987;50.884;14.818;2024-02-21T07:31:43;7.30;99.90
5924;DHT22;2987;50.884;14.818;2024-02-21T07:34:09;7.00;99.90
5924;DHT22;2987;50.884;14.818;2024-02-21T07:36:39;7.30;99.90
5924;DHT22;2987;50.884;14.818;2024-02-21T07:39:05;7.20;99.90
5924;DHT22;2987;50.884;14.818;2024-02-21T07:41:31;7.30;99.90
5924;DHT22;2987;50.884;14.818;2024-02-21T07:43:57;7.30;99.90
5924;DHT22;2987;50.884;14.818;2024-02-21T07:46:24;7.30;99.90
5924;DHT22;2987;50.884;14.818;2024-02-21T07:48:50;7.30;99.90
5924;DHT22;2987;50.884;14.818;2024-02-21T07:51:16;7.50;99.90
5924;DHT22;2987;50.884;14.818;2024-02-21T07:53:44;7.50;99.90
5924;DHT22;2987;50.884;14.818;2024-02-21T07:56:15;7.30;99.90
5924;DHT22;2987;50.884;14.818;2024-02-21T07:58:41;7.40;99.90
5924;DHT22;2987;50.884;14.818;2024-02-21T08:01:08;7.70;99.90
5924;DHT22;2987;50.884;14.818;2024-02-21T08:03:34;7.70;99.90
5924;DHT22;2987;50.884;14.818;2024-02-21T08:06:01;7.50;99.90
5924;DHT22;2987;50.884;14.818;2024-02-21T08:08:27;7.60;99.90
5924;DHT22;2987;50.884;14.818;2024-02-21T08:10:53;7.60;99.90
5924;DHT22;2987;50.884;14.818;2024-02-21T08:13:19;7.60;99.90
5924;DHT22;2987;50.884;14.818;2024-02-21T08:15:45;7.60;99.90
5924;DHT22;2987;50.884;14.818;2024-02-21T08:18:11;7.50;99.90
5924;DHT22;2987;50.884;14.818;2024-02-21T08:20:37;7.50;99.90
5924;DHT22;2987;50.884;14.818;2024-02-21T08:23:03;7.50;99.90
5924;DHT22;2987;50.884;14.818;2024-02-21T08:25:29;7.60;99.90
5924;DHT22;2987;50.884;14.818;2024-02-21T08:27:58;7.60;99.90
5924;DHT22;2987;50.884;14.818;2024-02-21T08:30:24;7.50;99.90
5924;DHT22;2987;50.884;14.818;2024-02-21T08:32:50;7.60;99.90
5924;DHT22;2987;50.884;14.818;2024-02-21T08:35:16;7.60;99.90
5924;DHT22;2987;50.884;14.818;2024-02-21T08:37:46;7.70;99.90
5924;DHT22;2987;50.884;14.818;2024-02-21T08:40:14;7.50;99.90
5924;DHT22;2987;50.884;14.818;2024-02-21T08:42:43;7.50;99.90
5924;DHT22;2987;50.884;14.818;2024-02-21T08:45:10;7.80;99.90
5924;DHT22;2987;50.884;14.818;2024-02-21T08:47:38;7.90;99.90
5924;DHT22;2987;50.884;14.818;2024-02-21T08:50:05;7.90;99.90
5924;DHT22;2987;50.884;14.818;2024-02-21T08:52:31;8.00;99.90
5924;DHT22;2987;50.884;14.818;2024-02-21T08:54:58;7.90;99.90
5924;DHT22;2987;50.884;14.818;2024-02-21T08:57:24;7.90;99.90
5924;DHT22;2987;50.884;14.818;2024-02-21T08:59:49;7.80;99.90
5924;DHT22;2987;50.884;14.818;2024-02-21T09:02:15;7.80;99.90
5924;DHT22;2987;50.884;14.818;2024-02-21T09:04:44;7.90;99.90
5924;DHT22;2987;50.884;14.818;2024-02-21T09:07:11;7.80;99.90
5924;DHT22;2987;50.884;14.818;2024-02-21T09:09:37;7.90;99.90
5924;DHT22;2987;50.884;14.818;2024-02-21T09:12:25;8.20;99.90
5924;DHT22;2987;50.884;14.818;2024-02-21T09:14:51;8.40;99.90
5924;DHT22;2987;50.884;14.818;2024-02-21T09:17:17;8.20;99.90
5924;DHT22;2987;50.884;14.818;2024-02-21T09:19:44;8.70;99.90
5924;DHT22;2987;50.884;14.818;2024-02-21T09:22:10;8.70;99.90
5924;DHT22;2987;50.884;14.818;2024-02-21T09:24:36;8.70;99.90
5924;DHT22;2987;50.884;14.818;2024-02-21T09:27:01;8.50;99.90
5924;DHT22;2987;50.884;14.818;2024-02-21T09:29:28;8.50;99.90
5924;DHT22;2987;50.884;14.818;2024-02-21T09:31:54;8.80;99.90
5924;DHT22;2987;50.884;14.818;2024-02-21T09:34:20;8.50;99.90
5924;DHT22;2987;50.884;14.818;2024-02-21T09:36:45;8.60;99.90
5924;DHT22;2987;50.884;14.818;2024-02-21T09:39:11;8.60;99.90
5924;DHT22;2987;50.884;14.818;2024-02-21T09:41:46;9.00;99.90
5924;DHT22;2987;50.884;14.818;2024-02-21T09:44:13;9.20;99.90
5924;DHT22;2987;50.884;14.818;2024-02-21T09:46:54;9.10;99.90
5924;DHT22;2987;50.884;14.818;2024-02-21T09:49:30;9.60;99.90
5924;DHT22;2987;50.884;14.818;2024-02-21T09:52:00;9.30;99.90
5924;DHT22;2987;50.884;14.818;2024-02-21T09:54:29;9.50;99.90
5924;DHT22;2987;50.884;14.818;2024-02-21T09:56:58;9.30;99.90
5924;DHT22;2987;50.884;14.818;2024-02-21T09:59:25;9.20;99.90
5924;DHT22;2987;50.884;14.818;2024-02-21T10:01:52;9.40;99.90
5924;DHT22;2987;50.884;14.818;2024-02-21T10:04:19;9.70;99.90
5924;DHT22;2987;50.884;14.818;2024-02-21T10:06:45;9.60;99.90
5924;DHT22;2987;50.884;14.818;2024-02-21T10:09:27;9.90;99.90
5924;DHT22;2987;50.884;14.818;2024-02-21T10:12:07;10.10;99.90
5924;DHT22;2987;50.884;14.818;2024-02-21T10:14:33;10.20;99.90
5924;DHT22;2987;50.884;14.818;2024-02-21T10:16:59;10.10;99.90
5924;DHT22;2987;50.884;14.818;2024-02-21T10:19:25;10.60;99.90
5924;DHT22;2987;50.884;14.818;2024-02-21T10:22:10;10.90;99.90
5924;DHT22;2987;50.884;14.818;2024-02-21T10:24:37;11.70;99.90
5924;DHT22;2987;50.884;14.818;2024-02-21T10:27:09;11.60;99.90
5924;DHT22;2987;50.884;14.818;2024-02-21T10:29:37;11.30;99.90
5924;DHT22;2987;50.884;14.818;2024-02-21T10:32:13;11.00;99.90
5924;DHT22;2987;50.884;14.818;2024-02-21T10:34:41;10.50;99.90
5924;DHT22;2987;50.884;14.818;2024-02-21T10:37:09;10.50;99.90
5924;DHT22;2987;50.884;14.818;2024-02-21T10:39:38;10.20;99.90
5924;DHT22;2987;50.884;14.818;2024-02-21T10:42:04;10.30;99.90
5924;DHT22;2987;50.884;14.818;2024-02-21T10:44:33;10.30;99.90
5924;DHT22;2987;50.884;14.818;2024-02-21T10:46:59;9.90;99.90
5924;DHT22;2987;50.884;14.818;2024-02-21T10:49:30;10.00;99.90
5924;DHT22;2987;50.884;14.818;2024-02-21T10:52:21;9.70;99.90
5924;DHT22;2987;50.884;14.818;2024-02-21T10:54:56;9.90;99.90
5924;DHT22;2987;50.884;14.818;2024-02-21T10:57:25;9.90;99.90
5924;DHT22;2987;50.884;14.818;2024-02-21T10:59:55;9.70;99.90
5924;DHT22;2987;50.884;14.818;2024-02-21T11:02:21;9.90;99.90
5924;DHT22;2987;50.884;14.818;2024-02-21T11:04:48;9.80;99.90
5924;DHT22;2987;50.884;14.818;2024-02-21T11:07:15;9.70;99.90
5924;DHT22;2987;50.884;14.818;2024-02-21T11:09:51;9.60;99.90
5924;DHT22;2987;50.884;14.818;2024-02-21T11:12:20;9.80;99.90
5924;DHT22;2987;50.884;14.818;2024-02-21T11:14:47;9.90;99.90
5924;DHT22;2987;50.884;14.818;2024-02-21T11:17:18;9.90;99.90
5924;DHT22;2987;50.884;14.818;2024-02-21T11:19:44;9.70;99.90
5924;DHT22;2987;50.884;14.818;2024-02-21T11:22:18;9.90;99.90
5924;DHT22;2987;50.884;14.818;2024-02-21T11:24:45;9.80;99.90
5924;DHT22;2987;50.884;14.818;2024-02-21T11:27:13;9.80;99.90
5924;DHT22;2987;50.884;14.818;2024-02-21T11:29:45;9.80;99.90
5924;DHT22;2987;50.884;14.818;2024-02-21T11:32:14;10.00;99.90
5924;DHT22;2987;50.884;14.818;2024-02-21T11:34:41;10.10;99.90
5924;DHT22;2987;50.884;14.818;2024-02-21T11:37:19;10.30;99.90
5924;DHT22;2987;50.884;14.818;2024-02-21T11:39:45;9.90;99.90
5924;DHT22;2987;50.884;14.818;2024-02-21T11:42:11;10.00;99.90
5924;DHT22;2987;50.884;14.818;2024-02-21T11:44:38;9.80;99.90
5924;DHT22;2987;50.884;14.818;2024-02-21T11:47:06;9.90;99.90
5924;DHT22;2987;50.884;14.818;2024-02-21T11:49:44;9.80;99.90
5924;DHT22;2987;50.884;14.818;2024-02-21T11:52:11;9.90;99.90
5924;DHT22;2987;50.884;14.818;2024-02-21T11:54:37;9.80;99.90
5924;DHT22;2987;50.884;14.818;2024-02-21T11:57:03;9.80;99.90
5924;DHT22;2987;50.884;14.818;2024-02-21T11:59:30;9.90;99.90
5924;DHT22;2987;50.884;14.818;2024-02-21T12:01:58;9.90;99.90
5924;DHT22;2987;50.884;14.818;2024-02-21T12:04:25;9.70;99.90
5924;DHT22;2987;50.884;14.818;2024-02-21T12:06:52;9.80;99.90
5924;DHT22;2987;50.884;14.818;2024-02-21T12:09:19;9.80;99.90
5924;DHT22;2987;50.884;14.818;2024-02-21T12:11:45;9.80;99.90
5924;DHT22;2987;50.884;14.818;2024-02-21T12:14:16;9.70;99.90
5924;DHT22;2987;50.884;14.818;2024-02-21T12:16:42;10.10;99.90
5924;DHT22;2987;50.884;14.818;2024-02-21T12:19:13;9.90;99.90
5924;DHT22;2987;50.884;14.818;2024-02-21T12:21:39;10.20;99.90
5924;DHT22;2987;50.884;14.818;2024-02-21T12:26:41;10.20;99.90
5924;DHT22;2987;50.884;14.818;2024-02-21T12:29:08;10.20;99.90
5924;DHT22;2987;50.884;14.818;2024-02-21T12:31:36;10.30;99.90
5924;DHT22;2987;50.884;14.818;2024-02-21T12:34:03;10.10;99.90
5924;DHT22;2987;50.884;14.818;2024-02-21T12:36:33;10.40;99.90
5924;DHT22;2987;50.884;14.818;2024-02-21T12:38:59;10.40;99.90
5924;DHT22;2987;50.884;14.818;2024-02-21T12:41:28;10.40;99.90
5924;DHT22;2987;50.884;14.818;2024-02-21T12:43:55;10.50;99.90
5924;DHT22;2987;50.884;14.818;2024-02-21T12:46:22;10.70;99.90
5924;DHT22;2987;50.884;14.818;2024-02-21T12:48:48;10.90;99.90
5924;DHT22;2987;50.884;14.818;2024-02-21T12:51:14;11.20;99.90
5924;DHT22;2987;50.884;14.818;2024-02-21T12:53:41;11.40;99.90
5924;DHT22;2987;50.884;14.818;2024-02-21T12:56:07;11.90;99.90
5924;DHT22;2987;50.884;14.818;2024-02-21T12:58:33;11.80;99.90
5924;DHT22;2987;50.884;14.818;2024-02-21T13:00:59;11.80;99.90
5924;DHT22;2987;50.884;14.818;2024-02-21T13:03:25;12.00;99.90
5924;DHT22;2987;50.884;14.818;2024-02-21T13:05:52;12.10;99.90
5924;DHT22;2987;50.884;14.818;2024-02-21T13:08:17;12.20;99.90
5924;DHT22;2987;50.884;14.818;2024-02-21T13:10:48;12.10;99.90
5924;DHT22;2987;50.884;14.818;2024-02-21T13:13:14;12.00;99.90
5924;DHT22;2987;50.884;14.818;2024-02-21T13:15:41;11.90;99.90
5924;DHT22;2987;50.884;14.818;2024-02-21T13:18:09;11.90;99.90
5924;DHT22;2987;50.884;14.818;2024-02-21T13:20:36;11.70;99.90
5924;DHT22;2987;50.884;14.818;2024-02-21T13:23:02;11.60;99.90
5924;DHT22;2987;50.884;14.818;2024-02-21T13:25:28;11.70;99.90
5924;DHT22;2987;50.884;14.818;2024-02-21T13:27:55;11.30;99.90
5924;DHT22;2987;50.884;14.818;2024-02-21T13:30:22;11.40;99.90
5924;DHT22;2987;50.884;14.818;2024-02-21T13:32:48;11.40;99.90
5924;DHT22;2987;50.884;14.818;2024-02-21T13:35:14;11.30;99.90
5924;DHT22;2987;50.884;14.818;2024-02-21T13:37:41;11.40;99.90
5924;DHT22;2987;50.884;14.818;2024-02-21T13:40:08;11.40;99.90
5924;DHT22;2987;50.884;14.818;2024-02-21T13:42:40;11.60;99.90
5924;DHT22;2987;50.884;14.818;2024-02-21T13:45:06;11.70;99.90
5924;DHT22;2987;50.884;14.818;2024-02-21T13:47:33;11.70;99.90
5924;DHT22;2987;50.884;14.818;2024-02-21T13:50:00;12.00;99.90
5924;DHT22;2987;50.884;14.818;2024-02-21T13:52:26;11.30;99.90
5924;DHT22;2987;50.884;14.818;2024-02-21T13:54:52;11.30;99.90
5924;DHT22;2987;50.884;14.818;2024-02-21T13:57:18;11.50;99.90
5924;DHT22;2987;50.884;14.818;2024-02-21T13:59:44;11.40;99.90
5924;DHT22;2987;50.884;14.818;2024-02-21T14:02:10;11.50;99.90
5924;DHT22;2987;50.884;14.818;2024-02-21T14:04:36;11.60;99.90
5924;DHT22;2987;50.884;14.818;2024-02-21T14:07:02;11.70;99.90
5924;DHT22;2987;50.884;14.818;2024-02-21T14:09:28;11.80;99.90
5924;DHT22;2987;50.884;14.818;2024-02-21T14:11:58;11.60;99.90
5924;DHT22;2987;50.884;14.818;2024-02-21T14:14:27;11.70;99.90
5924;DHT22;2987;50.884;14.818;2024-02-21T14:16:53;11.80;99.90
5924;DHT22;2987;50.884;14.818;2024-02-21T14:19:19;11.80;99.90
5924;DHT22;2987;50.884;14.818;2024-02-21T14:21:45;11.80;99.90
5924;DHT22;2987;50.884;14.818;2024-02-21T14:24:11;11.70;99.90
5924;DHT22;2987;50.884;14.818;2024-02-21T14:26:38;11.70;99.90
5924;DHT22;2987;50.884;14.818;2024-02-21T14:29:07;12.00;99.90
5924;DHT22;2987;50.884;14.818;2024-02-21T14:31:33;11.80;99.90
5924;DHT22;2987;50.884;14.818;2024-02-21T14:33:59;11.70;99.90
5924;DHT22;2987;50.884;14.818;2024-02-21T14:36:26;11.70;99.90
5924;DHT22;2987;50.884;14.818;2024-02-21T14:38:52;11.70;99.90
5924;DHT22;2987;50.884;14.818;2024-02-21T14:41:18;11.70;99.90
5924;DHT22;2987;50.884;14.818;2024-02-21T14:43:44;11.90;99.90
5924;DHT22;2987;50.884;14.818;2024-02-21T14:46:11;11.80;99.90
5924;DHT22;2987;50.884;14.818;2024-02-21T14:48:38;11.60;99.90
5924;DHT22;2987;50.884;14.818;2024-02-21T14:51:04;11.60;99.90
5924;DHT22;2987;50.884;14.818;2024-02-21T14:53:30;11.60;99.90
5924;DHT22;2987;50.884;14.818;2024-02-21T14:55:56;11.50;99.90
5924;DHT22;2987;50.884;14.818;2024-02-21T14:58:23;11.50;99.90
5924;DHT22;2987;50.884;14.818;2024-02-21T15:00:50;11.50;99.90
5924;DHT22;2987;50.884;14.818;2024-02-21T15:03:16;11.60;99.90
5924;DHT22;2987;50.884;14.818;2024-02-21T15:05:45;11.40;99.90
5924;DHT22;2987;50.884;14.818;2024-02-21T15:08:12;11.40;99.90
5924;DHT22;2987;50.884;14.818;2024-02-21T15:10:38;11.30;99.90
5924;DHT22;2987;50.884;14.818;2024-02-21T15:13:04;11.30;99.90
5924;DHT22;2987;50.884;14.818;2024-02-21T15:15:30;11.20;99.90
5924;DHT22;2987;50.884;14.818;2024-02-21T15:17:56;11.20;99.90
5924;DHT22;2987;50.884;14.818;2024-02-21T15:20:22;11.20;99.90
5924;DHT22;2987;50.884;14.818;2024-02-21T15:22:48;11.20;99.90
5924;DHT22;2987;50.884;14.818;2024-02-21T15:25:14;11.20;99.90
5924;DHT22;2987;50.884;14.818;2024-02-21T15:27:45;11.10;99.90
5924;DHT22;2987;50.884;14.818;2024-02-21T15:30:11;11.00;99.90
5924;DHT22;2987;50.884;14.818;2024-02-21T15:32:41;11.00;99.90
5924;DHT22;2987;50.884;14.818;2024-02-21T15:35:10;11.00;99.90
5924;DHT22;2987;50.884;14.818;2024-02-21T15:37:36;11.00;99.90
5924;DHT22;2987;50.884;14.818;2024-02-21T15:40:02;11.00;99.90
5924;DHT22;2987;50.884;14.818;2024-02-21T15:42:31;10.90;99.90
5924;DHT22;2987;50.884;14.818;2024-02-21T15:44:58;10.90;99.90
5924;DHT22;2987;50.884;14.818;2024-02-21T15:47:29;10.70;99.90
5924;DHT22;2987;50.884;14.818;2024-02-21T15:49:55;10.70;99.90
5924;DHT22;2987;50.884;14.818;2024-02-21T15:52:21;10.60;99.90
5924;DHT22;2987;50.884;14.818;2024-02-21T15:54:47;10.60;99.90
5924;DHT22;2987;50.884;14.818;2024-02-21T15:57:13;10.50;99.90
5924;DHT22;2987;50.884;14.818;2024-02-21T15:59:40;10.10;99.90
5924;DHT22;2987;50.884;14.818;2024-02-21T16:02:06;10.20;99.90
5924;DHT22;2987;50.884;14.818;2024-02-21T16:04:32;10.10;99.90